createdAt,value
2023-04-15T00:01:51.747Z,8.29
2023-04-15T00:04:18.521Z,8.16
2023-04-15T00:06:52.172Z,8.10
2023-04-15T00:09:19.686Z,8.09
2023-04-15T00:11:46.396Z,8.12
2023-04-15T00:14:13.674Z,8.16
2023-04-15T00:16:40.310Z,8.16
2023-04-15T00:19:07.029Z,8.09
2023-04-15T00:21:34.075Z,8.14
2023-04-15T00:24:01.207Z,8.19
2023-04-15T00:26:27.980Z,8.23
2023-04-15T00:28:54.682Z,8.23
2023-04-15T00:31:21.913Z,8.23
2023-04-15T00:33:48.816Z,8.19
2023-04-15T00:36:15.616Z,8.17
2023-04-15T00:38:42.310Z,8.14
2023-04-15T00:41:09.377Z,8.13
2023-04-15T00:43:36.001Z,8.10
2023-04-15T00:46:04.098Z,8.04
2023-04-15T00:48:30.872Z,8.06
2023-04-15T00:50:57.609Z,8.07
2023-04-15T00:53:24.268Z,7.99
2023-04-15T00:55:51.434Z,8.02
2023-04-15T00:58:18.123Z,8.10
2023-04-15T01:00:44.818Z,8.20
2023-04-15T01:03:11.846Z,8.23
2023-04-15T01:05:38.821Z,8.13
2023-04-15T01:08:05.978Z,8.03
2023-04-15T01:10:32.643Z,8.04
2023-04-15T01:12:59.307Z,8.13
2023-04-15T01:15:26.395Z,8.13
2023-04-15T01:17:53.106Z,8.19
2023-04-15T01:20:20.370Z,8.23
2023-04-15T01:22:46.993Z,8.19
2023-04-15T01:25:17.913Z,8.23
2023-04-15T01:27:44.567Z,8.20
2023-04-15T01:30:11.597Z,8.24
2023-04-15T01:32:38.358Z,8.27
2023-04-15T01:35:05.398Z,8.24
2023-04-15T01:37:32.086Z,8.20
2023-04-15T01:39:58.736Z,8.20
2023-04-15T01:42:25.476Z,8.21
2023-04-15T01:44:52.226Z,8.20
2023-04-15T01:47:18.921Z,8.19
2023-04-15T01:49:45.662Z,8.16
2023-04-15T01:52:12.280Z,8.09
2023-04-15T01:54:38.934Z,8.13
2023-04-15T01:57:05.738Z,8.14
2023-04-15T01:59:32.423Z,8.12
2023-04-15T02:01:59.151Z,8.19
2023-04-15T02:04:25.921Z,8.14
2023-04-15T02:06:52.569Z,8.13
2023-04-15T02:09:19.211Z,8.12
2023-04-15T02:11:45.990Z,7.90
2023-04-15T02:14:12.755Z,7.82
2023-04-15T02:16:39.419Z,7.82
2023-04-15T02:19:06.161Z,7.87
2023-04-15T02:21:32.806Z,7.92
2023-04-15T02:23:59.450Z,7.94
2023-04-15T02:26:26.196Z,7.96
2023-04-15T02:28:52.873Z,8.00
2023-04-15T02:31:19.588Z,7.97
2023-04-15T02:33:46.773Z,7.96
2023-04-15T02:36:13.427Z,7.94
2023-04-15T02:38:43.344Z,7.83
2023-04-15T02:41:10.613Z,7.79
2023-04-15T02:43:38.058Z,7.78
2023-04-15T02:46:04.826Z,7.86
2023-04-15T02:48:31.611Z,7.92
2023-04-15T02:51:19.697Z,7.93
2023-04-15T02:53:47.330Z,7.90
2023-04-15T02:56:15.339Z,7.90
2023-04-15T02:58:42.225Z,7.94
2023-04-15T03:01:11.881Z,8.02
2023-04-15T03:03:38.621Z,8.07
2023-04-15T03:06:05.507Z,8.07
2023-04-15T03:08:32.256Z,8.10
2023-04-15T03:11:00.920Z,8.12
2023-04-15T03:13:27.709Z,8.10
2023-04-15T03:15:54.504Z,8.12
2023-04-15T03:18:21.619Z,8.09
2023-04-15T03:20:48.261Z,8.07
2023-04-15T03:23:15.012Z,8.00
2023-04-15T03:25:41.754Z,7.97
2023-04-15T03:28:08.382Z,7.89
2023-04-15T03:30:35.049Z,7.72
2023-04-15T03:33:01.832Z,7.69
2023-04-15T03:35:28.522Z,7.71
2023-04-15T03:37:55.698Z,7.68
2023-04-15T03:40:22.618Z,7.68
2023-04-15T03:42:49.275Z,7.71
2023-04-15T03:45:16.145Z,7.68
2023-04-15T03:47:42.910Z,7.72
2023-04-15T03:50:09.738Z,7.73
2023-04-15T03:52:36.443Z,7.75
2023-04-15T03:55:03.166Z,7.71
2023-04-15T03:57:29.858Z,7.73
2023-04-15T03:59:56.561Z,7.71
2023-04-15T04:02:23.600Z,7.66
2023-04-15T04:04:50.826Z,7.65
2023-04-15T04:07:18.232Z,7.66
2023-04-15T04:09:47.027Z,7.54
2023-04-15T04:12:14.057Z,7.40
2023-04-15T04:14:40.874Z,7.37
2023-04-15T04:17:07.559Z,7.35
2023-04-15T04:19:34.254Z,7.32
2023-04-15T04:22:01.079Z,7.28
2023-04-15T04:24:27.776Z,7.31
2023-04-15T04:26:54.570Z,7.28
2023-04-15T04:29:21.514Z,7.21
2023-04-15T04:31:48.799Z,7.16
2023-04-15T04:34:16.204Z,7.17
2023-04-15T04:36:42.886Z,7.21
2023-04-15T04:39:09.519Z,7.28
2023-04-15T04:41:36.318Z,7.28
2023-04-15T04:44:03.724Z,7.30
2023-04-15T04:46:30.398Z,7.37
2023-04-15T04:48:57.020Z,7.37
2023-04-15T04:51:23.751Z,7.35
2023-04-15T04:53:50.552Z,7.35
2023-04-15T04:56:17.212Z,7.38
2023-04-15T04:58:43.890Z,7.47
2023-04-15T05:01:10.640Z,7.61
2023-04-15T05:03:38.103Z,7.75
2023-04-15T05:06:07.437Z,7.89
2023-04-15T05:08:34.148Z,8.00
2023-04-15T05:11:00.892Z,8.06
2023-04-15T05:13:27.549Z,8.07
2023-04-15T05:15:54.271Z,8.13
2023-04-15T05:18:21.044Z,8.23
2023-04-15T05:20:47.925Z,8.34
2023-04-15T05:23:14.627Z,8.57
2023-04-15T05:25:41.540Z,8.71
2023-04-15T05:28:08.221Z,8.90
2023-04-15T05:30:34.915Z,9.10
2023-04-15T05:33:01.927Z,9.41
2023-04-15T05:35:28.680Z,9.46
2023-04-15T05:37:55.302Z,9.52
2023-04-15T05:40:22.382Z,9.61
2023-04-15T05:42:49.025Z,9.70
2023-04-15T05:45:15.614Z,9.84
2023-04-15T05:47:42.565Z,9.99
2023-04-15T05:50:09.643Z,10.15
2023-04-15T05:52:37.054Z,10.29
2023-04-15T05:55:03.793Z,10.42
2023-04-15T05:57:30.452Z,10.65
2023-04-15T05:59:57.912Z,10.87
2023-04-15T06:02:24.631Z,11.07
2023-04-15T06:04:51.453Z,11.15
2023-04-15T06:07:18.093Z,11.18
2023-04-15T06:09:44.990Z,11.20
2023-04-15T06:12:13.189Z,11.23
2023-04-15T06:14:40.602Z,11.29
2023-04-15T06:17:07.674Z,11.43
2023-04-15T06:19:35.074Z,11.62
2023-04-15T06:22:01.962Z,11.86
2023-04-15T06:24:28.748Z,12.07
2023-04-15T06:26:56.061Z,12.25
2023-04-15T06:29:22.695Z,12.44
2023-04-15T06:31:49.922Z,12.48
2023-04-15T06:34:16.723Z,12.55
2023-04-15T06:36:43.393Z,12.57
2023-04-15T06:39:10.610Z,12.63
2023-04-15T06:41:37.344Z,12.82
2023-04-15T06:44:04.042Z,12.72
2023-04-15T06:46:30.769Z,12.59
2023-04-15T06:48:57.472Z,12.67
2023-04-15T06:51:26.562Z,12.86
2023-04-15T06:53:53.380Z,13.18
2023-04-15T06:56:20.065Z,13.41
2023-04-15T06:58:47.260Z,13.66
2023-04-15T07:01:14.459Z,13.66
2023-04-15T07:03:42.057Z,13.69
2023-04-15T07:06:09.514Z,13.99
2023-04-15T07:08:36.269Z,14.26
2023-04-15T07:11:02.943Z,14.14
2023-04-15T07:13:31.561Z,14.20
2023-04-15T07:15:58.622Z,14.28
2023-04-15T07:18:25.590Z,14.33
2023-04-15T07:20:52.306Z,14.21
2023-04-15T07:23:18.926Z,13.91
2023-04-15T07:25:45.684Z,13.73
2023-04-15T07:28:12.652Z,13.96
2023-04-15T07:30:39.586Z,14.31
2023-04-15T07:33:06.277Z,14.65
2023-04-15T07:35:33.402Z,14.85
2023-04-15T07:38:00.036Z,14.78
2023-04-15T07:40:26.703Z,14.55
2023-04-15T07:42:53.368Z,14.24
2023-04-15T07:45:20.180Z,14.52
2023-04-15T07:47:47.019Z,14.68
2023-04-15T07:50:13.753Z,14.60
2023-04-15T07:52:40.468Z,14.71
2023-04-15T07:55:08.625Z,15.27
2023-04-15T07:57:36.314Z,15.91
2023-04-15T08:00:05.840Z,16.56
2023-04-15T08:02:32.750Z,16.92
2023-04-15T08:04:59.888Z,17.29
2023-04-15T08:07:27.465Z,17.33
2023-04-15T08:09:54.121Z,17.21
2023-04-15T08:12:20.824Z,17.02
2023-04-15T08:14:47.591Z,17.31
2023-04-15T08:17:14.288Z,17.49
2023-04-15T08:19:41.421Z,17.56
2023-04-15T08:22:15.158Z,17.71
2023-04-15T08:24:44.672Z,18.05
2023-04-15T08:27:11.309Z,18.27
2023-04-15T08:29:38.024Z,17.60
2023-04-15T08:32:05.008Z,17.42
2023-04-15T08:34:32.128Z,17.32
2023-04-15T08:36:58.799Z,17.57
2023-04-15T08:39:26.112Z,18.10
2023-04-15T08:42:02.720Z,18.66
2023-04-15T08:44:30.613Z,18.89
2023-04-15T08:46:57.440Z,19.02
2023-04-15T08:49:24.046Z,19.15
2023-04-15T08:51:50.690Z,19.02
2023-04-15T08:54:17.329Z,19.13
2023-04-15T08:56:44.016Z,18.85
2023-04-15T08:59:11.377Z,18.79
2023-04-15T09:01:38.428Z,18.49
2023-04-15T09:04:08.210Z,18.37
2023-04-15T09:06:35.135Z,18.05
2023-04-15T09:09:01.944Z,17.87
2023-04-15T09:11:30.822Z,17.74
2023-04-15T09:13:57.684Z,18.25
2023-04-15T09:16:24.643Z,18.72
2023-04-15T09:18:51.483Z,18.75
2023-04-15T09:21:18.266Z,18.90
2023-04-15T09:24:01.485Z,18.52
2023-04-15T09:26:35.695Z,18.38
2023-04-15T09:29:09.418Z,18.41
2023-04-15T09:31:39.330Z,18.39
2023-04-15T09:34:06.270Z,18.51
2023-04-15T09:36:52.942Z,18.35
2023-04-15T09:39:19.627Z,17.97
2023-04-15T09:41:46.360Z,17.76
2023-04-15T09:44:25.288Z,17.50
2023-04-15T09:46:52.022Z,17.52
2023-04-15T09:49:18.715Z,17.80
2023-04-15T09:51:54.424Z,17.70
2023-04-15T09:54:38.210Z,17.79
2023-04-15T09:57:08.710Z,17.42
2023-04-15T09:59:35.713Z,17.21
2023-04-15T10:02:07.832Z,17.12
2023-04-15T10:04:36.712Z,16.88
2023-04-15T10:07:05.068Z,16.84
2023-04-15T10:09:32.034Z,17.29
2023-04-15T10:11:59.376Z,17.86
2023-04-15T10:14:26.024Z,17.98
2023-04-15T10:16:52.664Z,18.22
2023-04-15T10:19:19.789Z,18.65
2023-04-15T10:21:46.759Z,19.08
2023-04-15T10:24:13.430Z,19.00
2023-04-15T10:26:40.059Z,19.04
2023-04-15T10:29:06.676Z,19.17
2023-04-15T10:31:33.338Z,18.83
2023-04-15T10:34:04.317Z,18.44
2023-04-15T10:36:31.112Z,18.01
2023-04-15T10:38:57.784Z,17.79
2023-04-15T10:41:28.195Z,17.74
2023-04-15T10:44:03.311Z,18.22
2023-04-15T10:46:43.508Z,18.65
2023-04-15T10:49:14.933Z,18.75
2023-04-15T10:51:45.546Z,18.62
2023-04-15T10:54:27.291Z,19.03
2023-04-15T10:57:21.873Z,19.03
2023-04-15T11:00:15.513Z,18.46
2023-04-15T11:02:47.503Z,18.66
2023-04-15T11:05:18.073Z,18.90
2023-04-15T11:07:44.804Z,18.97
2023-04-15T11:10:14.198Z,18.87
2023-04-15T11:12:41.298Z,18.59
2023-04-15T11:15:45.612Z,18.70
2023-04-15T11:18:19.040Z,19.06
2023-04-15T11:20:45.780Z,19.18
2023-04-15T11:23:14.592Z,19.02
2023-04-15T11:25:43.298Z,18.70
2023-04-15T11:28:10.636Z,18.25
2023-04-15T11:30:37.567Z,18.27
2023-04-15T11:33:12.570Z,18.65
2023-04-15T11:35:41.081Z,19.06
2023-04-15T11:38:12.269Z,19.48
2023-04-15T11:40:38.994Z,19.51
2023-04-15T11:43:08.756Z,19.57
2023-04-15T11:45:44.504Z,19.58
2023-04-15T11:48:11.773Z,19.65
2023-04-15T11:50:40.892Z,19.51
2023-04-15T11:53:09.142Z,19.44
2023-04-15T11:55:50.487Z,19.54
2023-04-15T11:58:26.776Z,19.32
2023-04-15T12:00:59.012Z,18.85
2023-04-15T12:03:30.556Z,18.66
2023-04-15T12:06:06.360Z,18.75
2023-04-15T12:08:59.192Z,19.07
2023-04-15T12:11:32.523Z,19.06
2023-04-15T12:14:07.458Z,19.03
2023-04-15T12:16:37.212Z,18.85
2023-04-15T12:19:17.138Z,18.37
2023-04-15T12:21:45.504Z,18.14
2023-04-15T12:24:15.521Z,17.98
2023-04-15T12:26:49.662Z,17.94
2023-04-15T12:29:17.345Z,17.93
2023-04-15T12:31:51.729Z,18.02
2023-04-15T12:34:18.702Z,18.15
2023-04-15T12:36:45.325Z,18.27
2023-04-15T12:39:12.044Z,18.34
2023-04-15T12:41:39.050Z,18.60
2023-04-15T12:44:05.867Z,18.59
2023-04-15T12:46:32.875Z,18.38
2023-04-15T12:48:59.546Z,18.14
2023-04-15T12:51:27.424Z,18.10
2023-04-15T12:53:54.124Z,17.98
2023-04-15T12:56:20.754Z,18.19
2023-04-15T12:58:47.507Z,18.34
2023-04-15T13:01:14.211Z,18.18
2023-04-15T13:03:41.272Z,17.94
2023-04-15T13:06:08.267Z,17.90
2023-04-15T13:08:36.873Z,17.66
2023-04-15T13:11:05.959Z,17.46
2023-04-15T13:13:32.771Z,17.31
2023-04-15T13:15:59.440Z,17.23
2023-04-15T13:18:26.145Z,17.10
2023-04-15T13:20:52.818Z,17.02
2023-04-15T13:23:19.443Z,16.88
2023-04-15T13:25:46.112Z,16.87
2023-04-15T13:28:12.703Z,16.91
2023-04-15T13:30:39.540Z,16.75
2023-04-15T13:33:06.339Z,16.80
2023-04-15T13:35:33.140Z,16.92
2023-04-15T13:37:59.776Z,16.96
2023-04-15T13:40:26.399Z,16.88
2023-04-15T13:42:53.330Z,17.11
2023-04-15T13:45:20.044Z,17.38
2023-04-15T13:47:46.722Z,17.46
2023-04-15T13:50:13.469Z,17.29
2023-04-15T13:52:40.161Z,17.04
2023-04-15T13:55:19.547Z,16.88
2023-04-15T13:57:47.926Z,16.73
2023-04-15T14:00:14.885Z,16.74
2023-04-15T14:02:42.454Z,16.75
2023-04-15T14:05:10.797Z,16.88
2023-04-15T14:07:37.450Z,16.73
2023-04-15T14:10:04.414Z,16.37
2023-04-15T14:12:31.152Z,15.91
2023-04-15T14:14:57.858Z,15.58
2023-04-15T14:17:24.547Z,15.64
2023-04-15T14:19:51.334Z,15.70
2023-04-15T14:22:19.035Z,15.54
2023-04-15T14:24:45.735Z,15.55
2023-04-15T14:27:12.669Z,15.71
2023-04-15T14:29:39.324Z,15.85
2023-04-15T14:32:12.337Z,16.02
2023-04-15T14:34:39.747Z,16.22
2023-04-15T14:37:06.523Z,16.18
2023-04-15T14:39:33.176Z,15.88
2023-04-15T14:41:59.946Z,15.72
2023-04-15T14:44:26.602Z,15.64
2023-04-15T14:46:53.705Z,15.65
2023-04-15T14:49:20.524Z,15.58
2023-04-15T14:51:47.178Z,15.50
2023-04-15T14:54:13.818Z,15.39
2023-04-15T14:56:40.574Z,15.26
2023-04-15T14:59:07.512Z,14.96
2023-04-15T15:01:34.575Z,14.79
2023-04-15T15:04:01.421Z,14.72
2023-04-15T15:06:28.428Z,14.78
2023-04-15T15:08:55.068Z,14.69
2023-04-15T15:11:21.799Z,14.68
2023-04-15T15:13:48.586Z,14.58
2023-04-15T15:16:15.352Z,14.33
2023-04-15T15:18:42.120Z,14.20
2023-04-15T15:21:08.777Z,14.09
2023-04-15T15:23:35.615Z,14.03
2023-04-15T15:26:02.298Z,14.10
2023-04-15T15:28:28.904Z,14.12
2023-04-15T15:30:55.915Z,14.13
2023-04-15T15:33:22.612Z,14.24
2023-04-15T15:35:49.349Z,14.31
2023-04-15T15:38:16.252Z,14.35
2023-04-15T15:40:42.915Z,14.30
2023-04-15T15:43:09.528Z,14.21
2023-04-15T15:45:36.223Z,14.33
2023-04-15T15:48:02.969Z,14.35
2023-04-15T15:50:29.700Z,14.38
2023-04-15T15:52:56.477Z,14.41
2023-04-15T15:55:25.255Z,14.37
2023-04-15T15:57:52.020Z,14.35
2023-04-15T16:00:18.719Z,14.34
2023-04-15T16:05:14.947Z,14.28
2023-04-15T16:07:41.653Z,14.21
2023-04-15T16:10:08.944Z,14.07
2023-04-15T16:12:35.659Z,14.05
2023-04-15T16:15:02.932Z,13.80
2023-04-15T16:17:29.554Z,13.72
2023-04-15T16:20:00.779Z,13.63
2023-04-15T16:22:28.029Z,13.59
2023-04-15T16:24:54.695Z,13.49
2023-04-15T16:27:21.396Z,13.47
2023-04-15T16:29:48.001Z,13.32
2023-04-15T16:32:14.660Z,13.17
2023-04-15T16:34:41.377Z,13.01
2023-04-15T16:37:08.090Z,12.96
2023-04-15T16:39:34.803Z,12.86
2023-04-15T16:42:02.489Z,12.75
2023-04-15T16:44:29.325Z,12.69
2023-04-15T16:46:56.616Z,12.72
2023-04-15T16:49:23.280Z,12.67
2023-04-15T16:51:49.893Z,12.67
2023-04-15T16:54:16.493Z,12.59
2023-04-15T16:56:43.097Z,12.48
2023-04-15T16:59:09.770Z,12.39
2023-04-15T17:01:39.603Z,12.32
2023-04-15T17:04:07.293Z,12.21
2023-04-15T17:06:34.014Z,12.08
2023-04-15T17:09:00.707Z,12.01
2023-04-15T17:11:28.109Z,11.93
2023-04-15T17:13:54.721Z,11.83
2023-04-15T17:16:21.624Z,11.81
2023-04-15T17:18:50.262Z,11.77
2023-04-15T17:21:17.621Z,11.71
2023-04-15T17:23:44.341Z,11.66
2023-04-15T17:26:11.163Z,11.59
2023-04-15T17:28:38.113Z,11.50
2023-04-15T17:31:05.097Z,11.36
2023-04-15T17:34:04.599Z,11.32
2023-04-15T17:36:18.438Z,11.23
2023-04-15T17:38:45.576Z,11.18
2023-04-15T17:41:12.347Z,11.12
2023-04-15T17:43:39.058Z,11.11
2023-04-15T17:46:07.108Z,11.11
2023-04-15T17:48:34.209Z,11.00
2023-04-15T17:51:00.938Z,10.91
2023-04-15T17:53:27.896Z,10.72
2023-04-15T17:55:54.802Z,10.63
2023-04-15T17:58:21.478Z,10.47
2023-04-15T18:00:48.116Z,10.36
2023-04-15T18:03:15.193Z,10.25
2023-04-15T18:05:42.795Z,10.19
2023-04-15T18:08:09.654Z,10.15
2023-04-15T18:10:36.450Z,10.12
2023-04-15T18:13:03.518Z,10.12
2023-04-15T18:15:33.544Z,10.08
2023-04-15T18:18:00.308Z,9.98
2023-04-15T18:20:27.057Z,9.92
2023-04-15T18:22:53.736Z,9.91
2023-04-15T18:25:20.538Z,9.81
2023-04-15T18:27:47.229Z,9.68
2023-04-15T18:30:13.872Z,9.58
2023-04-15T18:32:41.044Z,9.51
2023-04-15T18:35:08.148Z,9.46
2023-04-15T18:37:34.860Z,9.43
2023-04-15T18:40:01.500Z,9.43
2023-04-15T18:42:28.244Z,9.44
2023-04-15T18:44:55.120Z,9.38
2023-04-15T18:47:22.096Z,9.33
2023-04-15T18:49:48.767Z,9.26
2023-04-15T18:52:15.555Z,9.17
2023-04-15T18:54:42.211Z,9.10
2023-04-15T18:57:08.838Z,9.09
2023-04-15T18:59:35.772Z,8.99
2023-04-15T19:02:06.491Z,8.98
2023-04-15T19:04:33.332Z,8.95
2023-04-15T19:07:00.079Z,8.96
2023-04-15T19:09:26.878Z,8.92
2023-04-15T19:11:53.588Z,8.95
2023-04-15T19:14:20.342Z,8.90
2023-04-15T19:16:47.027Z,8.90
2023-04-15T19:19:15.054Z,8.95
2023-04-15T19:21:41.727Z,8.93
2023-04-15T19:24:08.378Z,8.98
2023-04-15T19:26:36.745Z,8.90
2023-04-15T19:29:03.911Z,8.90
2023-04-15T19:31:30.770Z,8.79
2023-04-15T19:33:57.443Z,8.67
2023-04-15T19:36:24.081Z,8.60
2023-04-15T19:38:50.804Z,8.55
2023-04-15T19:41:17.438Z,8.55
2023-04-15T19:43:44.134Z,8.61
2023-04-15T19:46:13.223Z,8.61
2023-04-15T19:48:40.014Z,8.58
2023-04-15T19:51:06.727Z,8.58
2023-04-15T19:53:33.423Z,8.58
2023-04-15T19:56:00.426Z,8.58
2023-04-15T19:58:27.062Z,8.54
2023-04-15T20:00:53.725Z,8.52
2023-04-15T20:03:21.017Z,8.48
2023-04-15T20:05:47.910Z,8.47
2023-04-15T20:08:14.565Z,8.45
2023-04-15T20:10:41.198Z,8.41
2023-04-15T20:13:07.863Z,8.34
2023-04-15T20:15:34.676Z,8.33
2023-04-15T20:18:01.423Z,8.30
2023-04-15T20:20:28.248Z,8.24
2023-04-15T20:22:54.908Z,8.16
2023-04-15T20:25:21.594Z,8.13
2023-04-15T20:27:48.257Z,8.07
2023-04-15T20:30:14.962Z,8.03
2023-04-15T20:32:41.676Z,7.90
2023-04-15T20:35:08.512Z,7.83
2023-04-15T20:37:36.676Z,7.75
2023-04-15T20:40:03.470Z,7.69
2023-04-15T20:42:34.338Z,7.62
2023-04-15T20:45:01.338Z,7.61
2023-04-15T20:47:28.110Z,7.56
2023-04-15T20:49:54.809Z,7.51
2023-04-15T20:52:21.861Z,7.55
2023-04-15T20:54:48.489Z,7.58
2023-04-15T20:57:15.450Z,7.54
2023-04-15T20:59:42.162Z,7.55
2023-04-15T21:02:08.946Z,7.50
2023-04-15T21:04:35.908Z,7.44
2023-04-15T21:07:02.637Z,7.44
2023-04-15T21:09:29.261Z,7.43
2023-04-15T21:14:25.588Z,7.31
2023-04-15T21:16:52.243Z,7.16
2023-04-15T21:19:18.877Z,7.14
2023-04-15T21:21:45.666Z,7.13
2023-04-15T21:24:12.322Z,7.13
2023-04-15T21:26:39.026Z,7.07
2023-04-15T21:29:07.304Z,7.01
2023-04-15T21:31:36.279Z,6.99
2023-04-15T21:34:02.962Z,6.99
2023-04-15T21:36:29.611Z,6.96
2023-04-15T21:38:56.222Z,7.00
2023-04-15T21:41:22.923Z,6.96
2023-04-15T21:43:49.571Z,6.93
2023-04-15T21:46:23.648Z,6.89
2023-04-15T21:48:53.342Z,6.80
2023-04-15T21:51:20.084Z,6.75
2023-04-15T21:53:46.731Z,6.68
2023-04-15T21:56:13.437Z,6.61
2023-04-15T21:58:40.072Z,6.59
2023-04-15T22:01:06.735Z,6.62
2023-04-15T22:03:34.418Z,6.71
2023-04-15T22:06:04.547Z,6.66
2023-04-15T22:08:44.505Z,6.62
2023-04-15T22:11:28.140Z,6.68
2023-04-15T22:13:55.058Z,6.69
2023-04-15T22:16:21.853Z,6.68
2023-04-15T22:18:48.646Z,6.73
2023-04-15T22:21:15.418Z,6.77
2023-04-15T22:23:42.046Z,6.82
2023-04-15T22:26:08.709Z,6.85
2023-04-15T22:28:35.381Z,6.86
2023-04-15T22:31:02.501Z,6.89
2023-04-15T22:33:29.426Z,6.87
2023-04-15T22:35:56.312Z,6.86
2023-04-15T22:38:22.961Z,6.77
2023-04-15T22:40:49.579Z,6.73
2023-04-15T22:43:16.296Z,6.62
2023-04-15T22:45:42.954Z,6.64
2023-04-15T22:48:09.561Z,6.69
2023-04-15T22:50:37.464Z,6.76
2023-04-15T22:53:04.126Z,6.80
2023-04-15T22:55:30.928Z,6.77
2023-04-15T22:57:57.721Z,6.79
2023-04-15T23:00:24.335Z,6.80
2023-04-15T23:02:51.287Z,6.82
2023-04-15T23:05:18.242Z,6.83
2023-04-15T23:07:44.915Z,6.87
2023-04-15T23:10:11.686Z,6.90
2023-04-15T23:12:38.355Z,6.92
2023-04-15T23:15:05.459Z,6.83
2023-04-15T23:17:32.177Z,6.77
2023-04-15T23:19:58.922Z,6.75
2023-04-15T23:22:25.568Z,6.79
2023-04-15T23:24:52.212Z,6.72
2023-04-15T23:27:19.082Z,6.71
2023-04-15T23:29:46.184Z,6.73
2023-04-15T23:32:12.891Z,6.75
2023-04-15T23:34:39.567Z,6.73
2023-04-15T23:37:06.250Z,6.68
2023-04-15T23:39:33.094Z,6.65
2023-04-15T23:41:59.771Z,6.68
2023-04-15T23:44:27.147Z,6.71
2023-04-15T23:46:53.865Z,6.73
2023-04-15T23:49:20.774Z,6.76
2023-04-15T23:51:47.515Z,6.76
2023-04-15T23:54:14.867Z,6.76
2023-04-15T23:56:41.496Z,6.76
2023-04-15T23:59:08.439Z,6.73
